Time;durP1;ratioP1;P1;durP2;ratioP2;P2;SDS_P1;SDS_P2;PMS_P1;PMS_P2;Temp;Humidity;BMP_temperature;BMP_pressure;BME280_temperature;BME280_humidity;BME280_pressure;Samples;Min_cycle;Max_cycle;Signal;HPM_P1;HPM_P2
2023/02/08 06:20:47;;;;;;;;;;;;;;;;;;5304486;23;19922;-83
2023/02/08 06:23:12;;;;;;;;;;;;;;;;;;4974699;28;19918;-83
2023/02/08 06:25:37;;;;;;;;;;;;;;;;;;4974136;28;20282;-83
2023/02/08 06:28:03;;;;;;;;;;;;;;;;;;4975656;28;20357;-83
2023/02/08 06:30:28;;;;;;;;;;;;;;;;;;4973856;28;19914;-83
2023/02/08 06:32:54;;;;;;;;;;;;;;;;;;4974045;28;19947;-82
2023/02/08 06:35:19;;;;;;;;;;;;;;;;;;4973706;28;19914;-84
2023/02/08 06:37:44;;;;;;;;;;;;;;;;;;4974114;28;19985;-86
2023/02/08 06:40:10;;;;;;;;;;;;;;;;;;4974526;28;19961;-84
2023/02/08 06:42:35;;;;;;;;;;;;;;;;;;4973905;28;19960;-82
2023/02/08 06:45:01;;;;;;;;;;;;;;;;;;4975476;28;20357;-83
2023/02/08 06:47:26;;;;;;;;;;;;;;;;;;4973783;28;19983;-83
2023/02/08 06:49:52;;;;;;;;;;;;;;;;;;4973278;28;19921;-83
2023/02/08 06:52:18;;;;;;;;;;;;;;;;;;4973304;28;19921;-83
2023/02/08 06:54:43;;;;;;;;;;;;;;;;;;4973642;28;20303;-81
2023/02/08 06:57:11;;;;;;;;;;;;;;;;;;4973955;28;19914;-84
2023/02/08 06:59:36;;;;;;;;;;;;;;;;;;4975340;28;20289;-82
2023/02/08 07:02:02;;;;;;;;;;;;;;;;;;4974908;28;19914;-81
2023/02/08 07:04:27;;;;;;;;;;;;;;;;;;4977119;28;19914;-82
2023/02/08 07:06:52;;;;;;;;;;;;;;;;;;4978754;28;20376;-83
2023/02/08 07:09:18;;;;;;;;;;;;;;;;;;4978297;28;19920;-83
2023/02/08 10:38:51;;;;;;;;;;;;;;;;;;4982777;28;19922;-86
2023/02/08 10:41:26;;;;;;;;;;;;;;;;;;4977440;28;19918;-88
2023/02/08 10:43:54;;;;;;;;;;;;;;;;;;4979285;28;19937;-87
2023/02/08 10:46:39;;;;;;;;;;;;;;;;;;4979039;28;19918;-86
2023/02/08 10:49:07;;;;;;;;;;;;;;;;;;4978997;28;19914;-86
2023/02/08 10:51:32;;;;;;;;;;;;;;;;;;4978723;28;19985;-86
2023/02/08 10:53:58;;;;;;;;;;;;;;;;;;4977317;28;20360;-86
2023/02/08 10:56:29;;;;;;;;;;;;;;;;;;4978611;28;20276;-86
2023/02/08 10:58:55;;;;;;;;;;;;;;;;;;4978518;28;19914;-86
2023/02/08 11:01:20;;;;;;;;;;;;;;;;;;4978601;28;19985;-84
2023/02/08 11:04:04;;;;;;;;;;;;;;;;;;4978241;28;19957;-83
2023/02/08 11:06:29;;;;;;;;;;;;;;;;;;4978153;28;20415;-84
2023/02/08 11:08:55;;;;;;;;;;;;;;;;;;4978450;28;19918;-84
2023/02/08 11:11:21;;;;;;;;;;;;;;;;;;4978392;28;19914;-83
2023/02/08 11:13:50;;;;;;;;;;;;;;;;;;4979795;28;19914;-89
2023/02/08 11:16:25;;;;;;;;;;;;;;;;;;4977257;28;19928;-85
2023/02/08 11:18:55;;;;;;;;;;;;;;;;;;4977138;28;19914;-85
2023/02/08 11:21:39;;;;;;;;;;;;;;;;;;4978365;28;20025;-85
2023/02/08 11:24:21;;;;;;;;;;;;;;;;;;4978346;28;19914;-85
2023/02/08 11:26:48;;;;;;;;;;;;;;;;;;4978111;28;19917;-86
2023/02/08 11:29:15;;;;;;;;;;;;;;;;;;4978129;28;19914;-86
2023/02/08 11:32:01;;;;;;;;;;;;;;;;;;4978025;28;19921;-89
2023/02/08 11:34:33;;;;;;;;;;;;;;;;;;4976792;28;19918;-90
2023/02/08 11:37:03;;;;;;;;;;;;;;;;;;4976941;28;20394;-89
2023/02/08 11:39:39;;;;;;;;;;;;;;;;;;4977814;28;19925;-87
2023/02/08 11:42:05;;;;;;;;;;;;;;;;;;4977711;28;19921;-88
2023/02/08 11:44:33;;;;;;;;;;;;;;;;;;4976570;28;19910;-89
2023/02/08 11:46:59;;;;;;;;;;;;;;;;;;4977497;28;20265;-87
2023/02/08 11:49:28;;;;;;;;;;;;;;;;;;4977678;28;19914;-88
2023/02/08 11:51:54;;;;;;;;;;;;;;;;;;4977657;28;19914;-90
2023/02/08 11:54:36;;;;;;;;;;;;;;;;;;4977516;28;19918;-87
2023/02/08 11:57:03;;;;;;;;;;;;;;;;;;4976977;28;19914;-87
2023/02/08 11:59:29;;;;;;;;;;;;;;;;;;4977570;28;19922;-92
2023/02/08 12:01:54;;;;;;;;;;;;;;;;;;4977782;28;19914;-90
2023/02/08 12:04:21;;;;;;;;;;;;;;;;;;4976405;28;19914;-88
2023/02/08 12:07:01;;;;;;;;;;;;;;;;;;4977290;28;20005;-88
2023/02/08 12:09:29;;;;;;;;;;;;;;;;;;4976145;28;19914;-88
2023/02/08 12:12:11;;;;;;;;;;;;;;;;;;4976153;28;19913;-88
2023/02/08 12:14:49;;;;;;;;;;;;;;;;;;4976107;28;19914;-88
2023/02/08 12:17:34;;;;;;;;;;;;;;;;;;4975764;28;20364;-88
2023/02/08 12:20:00;;;;;;;;;;;;;;;;;;4977401;28;19918;-88
2023/02/08 12:22:26;;;;;;;;;;;;;;;;;;4976104;28;20015;-89
2023/02/08 12:24:59;;;;;;;;;;;;;;;;;;4976922;28;19969;-88
2023/02/08 12:27:37;;;;;;;;;;;;;;;;;;4977091;28;19918;-89
2023/02/08 12:30:15;;;;;;;;;;;;;;;;;;4977153;28;20388;-89
2023/02/08 12:32:43;;;;;;;;;;;;;;;;;;4977067;28;20387;-89
2023/02/08 12:35:08;;;;;;;;;;;;;;;;;;4976862;28;20327;-90
2023/02/08 12:41:01;;;;;;;;;;;;;;;;;;4977172;28;19925;-91
2023/02/08 12:43:35;;;;;;;;;;;;;;;;;;4939323;29;19997;-90
2023/02/08 12:46:20;;;;;;;;;;;;;;;;;;4955655;29;19925;-90
2023/02/08 19:44:00;;;;;;;;;;;;;;;;;;4968447;28;19923;-81
2023/02/08 19:46:26;;;;;;;;;;;;;;;;;;4958646;29;19919;-81
2023/02/08 19:48:53;;;;;;;;;;;;;;;;;;4958737;28;19918;-82
2023/02/08 19:51:19;;;;;;;;;;;;;;;;;;4958280;29;19970;-81
2023/02/08 19:53:44;;;;;;;;;;;;;;;;;;4958497;28;19918;-82
2023/02/08 19:56:11;;;;;;;;;;;;;;;;;;4958291;29;19919;-80
2023/02/08 19:58:36;;;;;;;;;;;;;;;;;;4958375;29;19937;-82
2023/02/08 20:01:06;;;;;;;;;;;;;;;;;;4958195;29;20353;-84
2023/02/08 20:03:31;;;;;;;;;;;;;;;;;;4958275;28;19929;-83
2023/02/08 20:05:57;;;;;;;;;;;;;;;;;;4958098;28;19966;-82
2023/02/08 20:08:25;;;;;;;;;;;;;;;;;;4957628;28;20013;-82
2023/02/08 20:10:51;;;;;;;;;;;;;;;;;;4958012;28;20281;-82
2023/02/08 20:13:16;;;;;;;;;;;;;;;;;;4958007;29;19914;-82
2023/02/08 20:15:42;;;;;;;;;;;;;;;;;;4958075;29;19915;-81
2023/02/08 20:18:08;;;;;;;;;;;;;;;;;;4957981;28;19910;-80
2023/02/08 20:20:34;;;;;;;;;;;;;;;;;;4957600;28;20004;-81
2023/02/08 20:23:00;;;;;;;;;;;;;;;;;;4957852;29;19957;-80
2023/02/08 20:25:26;;;;;;;;;;;;;;;;;;4957824;28;19915;-80
2023/02/08 20:27:51;;;;;;;;;;;;;;;;;;4957883;29;19921;-81
2023/02/08 20:30:16;;;;;;;;;;;;;;;;;;4957597;28;20332;-81
2023/02/08 20:32:43;;;;;;;;;;;;;;;;;;4957516;29;19921;-81
2023/02/08 20:35:09;;;;;;;;;;;;;;;;;;4957739;29;19914;-80
2023/02/08 20:37:34;;;;;;;;;;;;;;;;;;4957703;29;19933;-80
2023/02/08 20:40:00;;;;;;;;;;;;;;;;;;4957465;29;19921;-80
2023/02/08 20:42:25;;;;;;;;;;;;;;;;;;4956420;29;20259;-80
2023/02/08 20:44:52;;;;;;;;;;;;;;;;;;4957272;28;19918;-79
2023/02/08 20:47:18;;;;;;;;;;;;;;;;;;4956038;29;19921;-82
